Latest Weather Observations for South Johnstone

IDQ60801

Issued at 12:02 pm EST Tuesday 23 December 2014 (issued every 30 minutes, with the page automatically refreshed every 10 minutes)

About weather observations | Map of weather stations | Latest weather observations for QLD | Other Formats
Station Details ID: 032037 Name: SOUTH JOHNSTONE EXP STN Lat: -17.61 Lon: 146.00 Height: 18.3 m
Data from the previous 72 hours. | See also: Recent months at South Johnstone
Date/Time
EST
Temp
°C
App
Temp
°C
Dew
Point
Rel
Hum
%
Delta-T
°C
Wind Press
QNH
hPa
Press
MSL
hPa
Rain
since 9 am
mm
Dir
 
Spd
km/h
Gust
km/h
Spd
kts
Gust
kts
23/12:00pm 30.3 29.5 18.1 48 7.8 SE 19 28 10 15 1012.4 1012.3 0.0
23/11:30am 29.4 28.7 17.4 48 7.6 SE 17 24 9 13 1012.5 - 0.0
23/11:00am 29.4 29.2 18.5 52 7.0 SE 17 28 9 15 1012.7 - 0.0
23/10:30am 29.9 29.7 18.4 50 7.4 SSE 17 28 9 15 1012.9 - 0.0
23/10:00am 29.4 28.7 17.4 48 7.6 ESE 17 28 9 15 1012.9 - 0.0
23/09:30am 28.6 28.5 17.9 52 6.8 SSE 15 26 8 14 1012.7 - 0.0
23/09:00am 29.5 28.9 17.5 48 7.6 SE 17 26 9 14 1012.6 1012.5 0.0
23/08:30am 28.4 30.3 19.8 59 5.6 S 9 15 5 8 1012.6 - 0.0
23/08:00am 27.1 28.4 20.1 65 4.6 S 13 19 7 10 1012.5 - 0.0
23/07:30am 26.5 29.0 20.2 68 4.1 SSW 7 15 4 8 1012.2 - 0.0
23/07:00am 24.2 28.2 21.3 84 1.9 N 2 7 1 4 1012.0 - 0.0
23/06:30am 22.7 24.6 20.5 87 1.4 WSW 11 13 6 7 1012.0 - 0.0
23/06:00am 21.5 24.2 20.6 95 0.6 W 7 11 4 6 1011.6 1011.5 0.0
23/05:30am 21.7 24.4 20.6 93 0.7 WSW 7 13 4 7 1011.4 - 0.0
23/05:00am 21.8 25.6 20.9 95 0.6 W 2 7 1 4 1011.1 - 0.0
23/04:30am 22.2 26.1 21.1 93 0.7 WSW 2 7 1 4 1010.8 - 0.0
23/04:00am 23.3 26.1 20.4 84 1.9 SSW 6 15 3 8 1010.7 - 0.0
23/03:30am 22.1 26.4 21.2 95 0.6 CALM 0 4 0 2 1010.8 - 0.0
23/03:00am 22.1 26.5 21.3 95 0.5 CALM 0 0 0 0 1010.6 1010.5 0.0
23/02:30am 22.2 25.4 21.3 95 0.6 WNW 6 7 3 4 1010.8 - 0.0
23/02:00am 22.6 26.3 21.4 93 0.8 WNW 4 7 2 4 1011.0 - 0.0
23/01:30am 22.7 26.0 21.5 93 0.8 WNW 6 9 3 5 1011.3 - 0.0
23/01:00am 22.8 26.5 21.4 92 0.9 W 4 7 2 4 1011.7 - 0.0
23/12:30am 23.0 26.8 21.6 92 0.9 W 4 9 2 5 1012.0 - 0.0
23/12:00am 23.2 26.9 21.5 90 1.1 W 4 11 2 6 1012.4 1012.3 0.0
 
Date/Time
EST
Temp
°C
App
Temp
°C
Dew
Point
Rel
Hum
%
Delta-T
°C
Wind Press
QNH
hPa
Press
MSL
hPa
Rain
since 9 am
mm
Dir
 
Spd
km/h
Gust
km/h
Spd
kts
Gust
kts
22/11:30pm 23.8 28.4 21.7 88 1.4 CALM 0 0 0 0 1012.7 - 0.0
22/11:00pm 25.4 28.3 20.7 75 3.1 S 6 9 3 5 1012.9 - 0.0
22/10:30pm 25.9 28.8 21.1 75 3.2 S 7 11 4 6 1013.0 - 0.0
22/10:00pm 25.5 28.5 20.9 75 3.0 S 6 11 3 6 1013.0 - 0.0
22/09:30pm 25.9 29.0 21.4 76 3.0 S 7 13 4 7 1012.9 - 0.0
22/09:00pm 26.1 29.6 22.1 78 2.7 S 7 13 4 7 1012.6 1012.5 0.0
22/08:30pm 25.9 30.4 22.3 80 2.4 S 2 6 1 3 1012.4 - 0.0
22/08:00pm 25.8 30.7 22.4 81 2.3 CALM 0 6 0 3 1012.3 - 0.0
22/07:30pm 26.1 30.2 22.2 79 2.6 SE 4 7 2 4 1012.1 - 0.0
22/07:00pm 26.7 30.0 21.9 75 3.2 SSE 7 11 4 6 1012.0 - 0.0
22/06:30pm 27.3 29.3 21.6 71 3.8 SSE 13 22 7 12 1011.6 - 0.0
22/06:00pm 28.2 29.8 20.8 64 4.9 SSE 13 19 7 10 1011.5 1011.4 0.0
22/05:30pm 28.9 30.1 19.9 58 5.9 SSE 13 19 7 10 1011.3 - 0.0
22/05:00pm 29.4 30.4 19.4 55 6.5 ESE 13 22 7 12 1011.0 - 0.0
22/04:30pm 29.3 29.6 19.5 55 6.4 ESE 17 26 9 14 1010.9 - 0.0
22/04:00pm 29.3 31.0 20.2 58 6.0 SE 11 22 6 12 1010.9 - 0.0
22/03:30pm 29.9 30.9 20.2 56 6.4 SE 15 24 8 13 1011.1 - 0.0
22/03:00pm 29.5 30.3 19.9 56 6.3 SE 15 24 8 13 1011.4 1011.3 0.0
22/02:30pm 29.3 30.0 18.9 53 6.7 SSE 13 22 7 12 1011.7 - 0.0
22/02:00pm 29.4 30.2 19.1 54 6.7 SE 13 22 7 12 1012.0 - 0.0
22/01:30pm 28.6 31.9 21.9 67 4.5 SSW 7 13 4 7 1012.3 - 0.0
22/01:00pm 27.0 29.7 21.4 71 3.7 SW 9 17 5 9 1012.7 - 0.0
22/12:30pm 27.4 29.8 20.9 67 4.3 SW 9 15 5 8 1012.9 - 0.0
22/12:00pm 28.3 28.1 17.5 52 6.8 SSE 15 24 8 13 1012.9 1012.8 0.0
22/11:30am 26.5 27.1 20.2 68 4.1 S 17 32 9 17 1013.2 - 0.0
22/11:00am 25.8 26.0 21.4 76 2.9 SE 22 35 12 19 1013.4 - 0.0
22/10:30am 26.5 27.2 22.3 78 2.8 S 22 35 12 19 1013.1 - 0.0
22/10:00am 29.2 31.4 21.1 61 5.4 E 11 20 6 11 1012.8 - 0.0
22/09:30am 29.5 31.9 21.6 62 5.3 E 11 19 6 10 1012.8 - 0.0
22/09:00am 28.3 33.6 24.3 79 2.8 W 4 11 2 6 1012.9 1012.8 4.2
22/08:30am 26.1 29.6 23.6 86 1.7 SW 11 13 6 7 1012.6 - 4.2
22/08:00am 25.8 31.0 24.2 91 1.1 W 4 9 2 5 1012.5 - 4.2
22/07:30am 25.3 29.8 24.0 92 0.9 W 7 13 4 7 1012.4 - 4.2
22/07:00am 24.5 28.3 23.5 94 0.7 WSW 9 13 5 7 1012.1 - 4.2
22/06:30am 23.4 27.5 23.0 98 0.3 W 6 9 3 5 1011.7 - 4.2
22/06:00am 23.3 27.4 22.9 98 0.3 W 6 9 3 5 1011.4 1011.3 4.2
22/05:30am 23.4 28.0 23.1 98 0.2 W 4 7 2 4 1010.9 - 4.2
22/05:00am 23.8 27.5 23.2 96 0.4 WSW 9 13 5 7 1010.7 - 4.2
22/04:30am 24.0 28.3 23.3 96 0.5 WSW 6 7 3 4 1010.7 - 4.0
22/04:00am 24.2 28.6 23.5 96 0.5 SW 6 11 3 6 1010.5 - 4.0
22/03:30am 24.1 28.5 23.5 96 0.4 WSW 6 7 3 4 1010.5 - 4.0
22/03:00am 23.8 29.3 23.4 98 0.3 CALM 0 0 0 0 1010.6 1010.5 2.0
22/02:30am 23.5 27.5 22.8 96 0.5 WSW 6 9 3 5 1010.9 - 1.8
22/02:00am 23.5 28.5 22.5 94 0.7 CALM 0 6 0 3 1011.1 - 1.0
22/01:30am 24.1 28.1 22.8 92 0.9 WSW 6 13 3 7 1011.5 - 0.4
22/01:00am 24.4 29.3 23.1 92 0.9 WSW 2 9 1 5 1011.8 - 0.2
22/12:30am 24.3 28.3 22.8 91 1.0 WSW 6 9 3 5 1012.2 - 0.2
22/12:00am 24.8 29.9 22.6 87 1.5 CALM 0 6 0 3 1012.4 1012.3 0.2
 
Date/Time
EST
Temp
°C
App
Temp
°C
Dew
Point
Rel
Hum
%
Delta-T
°C
Wind Press
QNH
hPa
Press
MSL
hPa
Rain
since 9 am
mm
Dir
 
Spd
km/h
Gust
km/h
Spd
kts
Gust
kts
21/11:30pm 25.1 30.0 23.0 88 1.4 W 2 9 1 5 1012.8 - 0.0
21/11:00pm 25.0 29.8 22.9 88 1.4 W 2 7 1 4 1012.6 - 0.0
21/10:30pm 25.2 30.4 22.8 86 1.6 CALM 0 0 0 0 1012.6 - 0.0
21/10:00pm 25.4 30.0 23.2 88 1.5 NNW 4 9 2 5 1012.6 - 0.0
21/09:30pm 25.3 29.1 22.8 86 1.7 WSW 7 13 4 7 1012.3 - 0.0
21/09:00pm 25.5 29.2 22.5 83 2.0 WSW 7 11 4 6 1012.1 1012.0 0.0
21/08:30pm 25.9 29.6 22.3 80 2.4 WSW 6 9 3 5 1012.1 - 0.0
21/08:00pm 26.0 30.8 22.1 79 2.6 CALM 0 7 0 4 1012.1 - 0.0
21/07:30pm 26.2 30.9 21.9 77 2.9 CALM 0 6 0 3 1011.9 - 0.0
21/07:00pm 26.5 29.8 21.9 76 3.1 S 7 9 4 5 1011.7 - 0.0
21/06:30pm 26.9 29.6 22.9 79 2.7 SSE 13 19 7 10 1011.3 - 0.0
21/06:00pm 27.6 29.7 23.1 76 3.1 SE 17 24 9 13 1011.0 1010.9 0.0
21/05:30pm 28.2 29.9 22.3 70 4.0 ESE 17 26 9 14 1010.9 - 0.0
21/05:00pm 28.6 30.4 23.2 72 3.7 SE 19 24 10 13 1010.7 - 0.0
21/04:30pm 28.5 30.3 22.5 70 4.1 SE 17 26 9 14 1010.6 - 0.0
21/04:00pm 28.6 30.0 21.1 64 5.0 SSE 15 22 8 12 1010.8 - 0.0
21/03:30pm 29.2 30.1 20.8 60 5.6 SE 17 24 9 13 1010.9 - 0.0
21/03:00pm 30.2 31.5 20.9 57 6.2 SSE 15 24 8 13 1011.0 1010.9 0.0
21/02:30pm 30.2 31.8 20.7 56 6.3 SSE 13 22 7 12 1011.2 - 0.0
21/02:00pm 30.4 32.1 21.0 57 6.3 SE 13 22 7 12 1011.3 - 0.0
21/01:30pm 31.2 32.6 21.9 57 6.3 SE 17 26 9 14 1011.5 - 0.0
21/01:00pm 31.3 32.6 20.8 53 7.0 ESE 15 24 8 13 1011.8 - 0.0
21/12:30pm 29.8 31.2 22.8 66 4.8 SE 20 32 11 17 1012.2 - 0.0
21/12:00pm 30.5 32.0 21.3 58 6.2 ESE 15 26 8 14 1012.4 1012.3 0.0
21/11:30am 31.0 33.0 20.8 54 6.8 SSE 11 20 6 11 1012.7 - 0.0
21/11:00am 30.5 33.0 20.2 54 6.8 SE 7 13 4 7 1012.9 - 0.0
21/10:30am 29.9 32.7 21.6 61 5.6 S 9 13 5 7 1012.9 - 0.0
21/10:00am 29.1 32.3 21.7 64 5.0 ESE 7 11 4 6 1013.0 - 0.0
21/09:30am 28.8 32.0 21.6 65 4.8 SE 7 11 4 6 1013.0 - 0.0
21/09:00am 28.1 32.6 23.6 76 3.1 SW 6 9 3 5 1012.9 1012.8 0.0
21/08:30am 27.1 31.2 23.0 78 2.8 WSW 6 11 3 6 1013.1 - 0.0
21/08:00am 26.5 31.4 23.0 81 2.4 W 2 7 1 4 1013.1 - 0.0
21/07:30am 25.1 29.0 22.6 86 1.7 WSW 6 13 3 7 1012.8 - 0.0
21/07:00am 24.5 28.2 22.3 87 1.5 SW 6 7 3 4 1012.5 - 0.0
21/06:30am 23.9 27.9 22.1 90 1.2 WSW 4 9 2 5 1012.0 - 0.0
21/06:00am 23.3 26.9 22.1 93 0.8 WSW 6 7 3 4 1011.6 1011.5 0.0
21/05:30am 23.0 27.0 22.1 95 0.6 WSW 4 7 2 4 1011.1 - 0.0
21/05:00am 23.2 28.1 22.3 95 0.6 CALM 0 2 0 1 1010.9 - 0.0
21/04:30am 23.5 26.7 22.3 93 0.8 WSW 9 13 5 7 1010.6 - 0.0
21/04:00am 23.9 27.2 22.6 92 0.9 WSW 9 11 5 6 1010.4 - 0.0
21/03:30am 24.1 29.1 22.5 91 1.1 CALM 0 0 0 0 1010.4 - 0.0
21/03:00am 24.0 28.2 22.5 91 1.0 W 4 11 2 6 1010.7 1010.6 0.0
21/02:30am 24.0 28.2 22.5 91 1.0 W 4 9 2 5 1010.8 - 0.0
21/02:00am 24.0 28.9 22.4 91 1.1 CALM 0 0 0 0 1010.9 - 0.0
21/01:30am 23.8 27.4 22.3 91 1.0 WSW 7 11 4 6 1011.1 - 0.0
21/01:00am 23.9 28.0 22.3 91 1.1 WNW 4 7 2 4 1011.3 - 0.0
21/12:30am 23.9 27.9 22.1 90 1.2 W 4 9 2 5 1011.6 - 0.0
21/12:00am 23.8 27.3 22.2 91 1.1 WSW 7 13 4 7 1011.6 1011.5 0.0
 
Date/Time
EST
Temp
°C
App
Temp
°C
Dew
Point
Rel
Hum
%
Delta-T
°C
Wind Press
QNH
hPa
Press
MSL
hPa
Rain
since 9 am
mm
Dir
 
Spd
km/h
Gust
km/h
Spd
kts
Gust
kts
20/11:30pm 23.9 27.6 22.3 91 1.1 W 6 9 3 5 1011.9 - 0.0
20/11:00pm 23.9 28.4 22.3 91 1.1 W 2 6 1 3 1012.0 - 0.0
20/10:30pm 24.2 28.9 22.6 91 1.1 NNW 2 6 1 3 1011.9 - 0.0
20/10:00pm 24.6 28.1 22.1 86 1.7 W 7 13 4 7 1012.0 - 0.0
20/09:30pm 24.5 29.0 22.3 87 1.5 W 2 6 1 3 1011.8 - 0.0
20/09:00pm 25.0 29.5 22.3 85 1.8 WSW 2 6 1 3 1011.8 1011.7 0.0
20/08:30pm 25.5 30.6 22.7 84 1.9 CALM 0 0 0 0 1011.4 - 0.0
20/08:00pm 25.9 30.4 22.2 80 2.5 E 2 6 1 3 1010.8 - 0.0
20/07:30pm 26.4 31.2 22.1 77 2.9 CALM 0 0 0 0 1010.4 - 0.0
20/07:00pm 27.3 30.8 21.8 72 3.7 ENE 6 9 3 5 1010.2 - 0.0
20/06:30pm 27.9 30.3 21.5 68 4.3 NE 11 15 6 8 1009.9 - 0.0
20/06:00pm 28.4 30.5 21.0 64 4.9 ENE 11 17 6 9 1009.6 1009.5 0.0
20/05:30pm 29.4 31.1 20.1 57 6.1 ENE 11 19 6 10 1009.1 - 0.0
20/05:00pm 30.4 31.7 19.2 51 7.3 E 11 19 6 10 1008.7 - 0.0
20/04:30pm 30.6 31.8 19.8 52 7.1 E 13 20 7 11 1008.6 - 0.0
20/04:00pm 30.8 31.6 19.9 52 7.2 E 15 24 8 13 1008.7 - 0.0
20/03:30pm 31.2 31.9 20.5 53 7.1 E 17 22 9 12 1009.0 - 0.0
20/03:00pm 31.2 31.9 20.5 53 7.1 E 17 26 9 14 1009.1 1009.0 0.0
20/02:30pm 31.0 32.3 20.1 52 7.2 ESE 13 20 7 11 1009.3 - 0.0
20/02:00pm 31.8 33.7 21.4 54 7.0 ESE 13 20 7 11 1009.6 - 0.0
20/01:30pm 32.1 34.0 22.1 55 6.8 SE 15 24 8 13 1010.0 - 0.0
20/01:00pm 31.6 33.0 21.0 53 7.1 E 15 26 8 14 1010.6 - 0.0
20/12:30pm 31.6 32.8 19.9 50 7.7 ESE 13 20 7 11 1011.0 - 0.0

Other Formats:

Comma delimited format used in spreadsheet applications
http://www.bom.gov.au/fwo/IDQ60801/IDQ60801.95292.axf

JavaScript Object Notation format (JSON) in row-major order
http://www.bom.gov.au/fwo/IDQ60801/IDQ60801.95292.json